Time;durP1;ratioP1;P1;durP2;ratioP2;P2;SDS_P1;SDS_P2;PMS_P1;PMS_P2;Temp;Humidity;BMP_temperature;BMP_pressure;BME280_temperature;BME280_humidity;BME280_pressure;Samples;Min_cycle;Max_cycle;Signal;HPM_P1;HPM_P2
2023/04/13 00:02:04;;;;;;;7.30;4.70;;;;;;;;;;5040061;28;20056;-75
2023/04/13 00:04:31;;;;;;;5.57;4.53;;;;;;;;;;5031723;28;20898;-75
2023/04/13 00:07:01;;;;;;;6.88;4.68;;;;;;;;;;5051294;28;20488;-74
2023/04/13 00:09:30;;;;;;;8.18;5.28;;;;;;;;;;5035268;28;20098;-74
2023/04/13 00:11:59;;;;;;;10.50;5.20;;;;;;;;;;5039608;28;20565;-75
2023/04/13 00:14:26;;;;;;;9.02;5.20;;;;;;;;;;5036842;28;20500;-75
2023/04/13 00:16:53;;;;;;;7.45;4.82;;;;;;;;;;5035301;28;20109;-76
2023/04/13 00:19:19;;;;;;;6.18;4.80;;;;;;;;;;5033791;28;20519;-75
2023/04/13 00:21:45;;;;;;;7.40;4.38;;;;;;;;;;5034319;28;20135;-75
2023/04/13 00:24:11;;;;;;;8.32;4.25;;;;;;;;;;5043986;28;20147;-75
2023/04/13 00:26:38;;;;;;;5.45;4.55;;;;;;;;;;5021430;28;20183;-74
2023/04/13 00:29:04;;;;;;;7.30;4.47;;;;;;;;;;5039750;28;20491;-76
2023/04/13 00:31:30;;;;;;;8.65;4.75;;;;;;;;;;5041126;28;20112;-75
2023/04/13 00:33:56;;;;;;;9.32;4.30;;;;;;;;;;5030141;28;20051;-75
2023/04/13 00:36:23;;;;;;;7.18;4.47;;;;;;;;;;5054742;28;20139;-74
2023/04/13 00:38:53;;;;;;;6.35;4.20;;;;;;;;;;5039456;28;20060;-75
2023/04/13 00:41:19;;;;;;;7.82;4.40;;;;;;;;;;5038910;28;20052;-75
2023/04/13 00:43:45;;;;;;;5.50;4.20;;;;;;;;;;5038910;28;20382;-75
2023/04/13 00:46:11;;;;;;;6.88;4.68;;;;;;;;;;5037077;28;20057;-75
2023/04/13 00:48:38;;;;;;;5.97;4.32;;;;;;;;;;5032884;28;20048;-75
2023/04/13 00:51:04;;;;;;;5.97;4.13;;;;;;;;;;5039738;28;20068;-75
2023/04/13 00:53:31;;;;;;;7.57;4.60;;;;;;;;;;5037179;28;20052;-75
2023/04/13 00:55:57;;;;;;;6.20;4.43;;;;;;;;;;5035835;28;20143;-75
2023/04/13 00:58:24;;;;;;;6.20;4.70;;;;;;;;;;5036006;28;20079;-75
2023/04/13 01:00:50;;;;;;;7.95;5.53;;;;;;;;;;5032354;28;20052;-76
2023/04/13 01:03:16;;;;;;;6.50;4.65;;;;;;;;;;5054407;28;20055;-75
2023/04/13 01:05:49;;;;;;;6.75;4.68;;;;;;;;;;5039942;28;20651;-74
2023/04/13 01:08:23;;;;;;;7.15;5.20;;;;;;;;;;5039450;28;20045;-76
2023/04/13 01:10:53;;;;;;;8.30;5.70;;;;;;;;;;5045788;28;20080;-75
2023/04/13 01:13:25;;;;;;;8.35;5.28;;;;;;;;;;5035480;28;20072;-75
2023/04/13 01:16:10;;;;;;;8.20;5.38;;;;;;;;;;5040063;28;20591;-74
2023/04/13 01:18:39;;;;;;;7.85;5.03;;;;;;;;;;5029919;28;20121;-75
2023/04/13 01:21:07;;;;;;;8.10;4.55;;;;;;;;;;5053640;28;20037;-75
2023/04/13 01:23:33;;;;;;;6.25;4.38;;;;;;;;;;5038237;28;20056;-74
2023/04/13 01:26:01;;;;;;;9.43;4.93;;;;;;;;;;5037319;28;20142;-75
2023/04/13 01:28:27;;;;;;;8.52;4.55;;;;;;;;;;5034481;28;20049;-75
2023/04/13 01:30:54;;;;;;;7.47;3.58;;;;;;;;;;5034969;28;20063;-75
2023/04/13 01:33:20;;;;;;;6.35;3.55;;;;;;;;;;5051109;28;20149;-75
2023/04/13 01:35:46;;;;;;;7.85;4.15;;;;;;;;;;5036136;28;20136;-74
2023/04/13 01:38:13;;;;;;;6.88;3.38;;;;;;;;;;5037472;28;20045;-74
2023/04/13 01:40:43;;;;;;;6.28;3.50;;;;;;;;;;5038834;28;20056;-74
2023/04/13 01:43:10;;;;;;;5.45;3.33;;;;;;;;;;5034265;28;20052;-75
2023/04/13 01:45:45;;;;;;;5.57;3.40;;;;;;;;;;5032880;28;20045;-76
2023/04/13 01:48:14;;;;;;;4.45;3.10;;;;;;;;;;5032532;28;20999;-75
2023/04/13 01:50:42;;;;;;;6.68;3.28;;;;;;;;;;5036938;28;20060;-75
2023/04/13 01:53:11;;;;;;;4.43;2.72;;;;;;;;;;5021488;28;20055;-75
2023/04/13 01:55:40;;;;;;;4.97;3.30;;;;;;;;;;5056988;28;20052;-76
2023/04/13 01:58:11;;;;;;;6.03;3.15;;;;;;;;;;5035350;28;20770;-75
2023/04/13 02:00:38;;;;;;;7.53;3.13;;;;;;;;;;5052882;28;20186;-75
2023/04/13 02:03:05;;;;;;;5.97;3.30;;;;;;;;;;5035932;28;20054;-75
2023/04/13 02:05:31;;;;;;;7.75;3.13;;;;;;;;;;5032928;28;20123;-74
2023/04/13 02:07:58;;;;;;;3.70;2.63;;;;;;;;;;5035232;28;20048;-73
2023/04/13 02:10:25;;;;;;;7.05;2.80;;;;;;;;;;5034170;28;20050;-75
2023/04/13 02:12:52;;;;;;;4.88;2.58;;;;;;;;;;5036220;28;20036;-74
2023/04/13 02:15:18;;;;;;;6.97;2.67;;;;;;;;;;5031794;28;20078;-74
2023/04/13 02:17:44;;;;;;;6.97;2.65;;;;;;;;;;5053352;28;20075;-74
2023/04/13 02:20:11;;;;;;;6.40;2.80;;;;;;;;;;5034453;28;20768;-75
2023/04/13 02:22:38;;;;;;;7.85;2.50;;;;;;;;;;5036824;28;20162;-74
2023/04/13 02:25:05;;;;;;;8.57;2.88;;;;;;;;;;5035235;28;20174;-75
2023/04/13 02:27:33;;;;;;;7.15;2.90;;;;;;;;;;5053192;28;20052;-75
2023/04/13 02:29:59;;;;;;;9.23;2.38;;;;;;;;;;5036531;28;20053;-75
2023/04/13 02:32:25;;;;;;;6.55;2.50;;;;;;;;;;5038300;28;20125;-75
2023/04/13 02:34:52;;;;;;;8.48;3.20;;;;;;;;;;5051890;28;20496;-74
2023/04/13 02:37:19;;;;;;;5.20;2.80;;;;;;;;;;5050847;28;20063;-74
2023/04/13 02:39:45;;;;;;;4.78;2.58;;;;;;;;;;5031540;28;20212;-75
2023/04/13 02:42:11;;;;;;;8.32;3.35;;;;;;;;;;5054500;28;20048;-75
2023/04/13 02:44:37;;;;;;;6.68;3.00;;;;;;;;;;5033764;28;20630;-74
2023/04/13 02:47:03;;;;;;;8.30;3.17;;;;;;;;;;5035055;28;20680;-73
2023/04/13 02:49:29;;;;;;;7.28;3.00;;;;;;;;;;5034162;28;20619;-75
2023/04/13 02:51:55;;;;;;;4.47;2.92;;;;;;;;;;5053743;28;20075;-74
2023/04/13 02:54:21;;;;;;;6.45;3.10;;;;;;;;;;5053940;28;20048;-75
2023/04/13 02:56:48;;;;;;;7.75;2.90;;;;;;;;;;5022236;28;20484;-75
2023/04/13 02:59:15;;;;;;;4.57;2.78;;;;;;;;;;5033505;28;20048;-75
2023/04/13 03:01:41;;;;;;;7.50;3.25;;;;;;;;;;5032417;28;20520;-75
2023/04/13 03:04:08;;;;;;;5.03;2.72;;;;;;;;;;5034981;28;20052;-75
2023/04/13 03:06:34;;;;;;;6.10;3.22;;;;;;;;;;5051132;28;20044;-75
2023/04/13 03:09:00;;;;;;;7.38;3.00;;;;;;;;;;5057348;28;20044;-75
2023/04/13 03:11:26;;;;;;;4.07;2.53;;;;;;;;;;5051907;28;20041;-74
2023/04/13 03:13:53;;;;;;;6.55;3.30;;;;;;;;;;5023150;28;20044;-75
2023/04/13 03:16:19;;;;;;;5.07;3.05;;;;;;;;;;5040665;28;20055;-75
2023/04/13 03:18:45;;;;;;;6.32;3.10;;;;;;;;;;5036341;28;20044;-73
2023/04/13 03:21:14;;;;;;;6.57;2.85;;;;;;;;;;5044310;28;20060;-75
2023/04/13 03:23:40;;;;;;;5.93;2.40;;;;;;;;;;5035748;28;20109;-75
2023/04/13 03:26:07;;;;;;;5.10;2.42;;;;;;;;;;5054322;28;20048;-75
2023/04/13 03:28:33;;;;;;;4.72;2.70;;;;;;;;;;5050365;28;20043;-74
2023/04/13 03:30:58;;;;;;;5.13;2.22;;;;;;;;;;5053516;28;20044;-74
2023/04/13 03:33:24;;;;;;;4.28;2.42;;;;;;;;;;5056819;28;20044;-74
2023/04/13 03:35:50;;;;;;;2.80;2.10;;;;;;;;;;5058104;28;20061;-75
2023/04/13 03:38:16;;;;;;;4.85;2.47;;;;;;;;;;5036272;28;20575;-75
2023/04/13 03:40:42;;;;;;;4.35;2.25;;;;;;;;;;5028208;28;20179;-74
2023/04/13 03:43:09;;;;;;;2.72;2.17;;;;;;;;;;5059557;28;20036;-75
2023/04/13 03:45:35;;;;;;;6.20;2.22;;;;;;;;;;5040235;28;20048;-75
2023/04/13 03:48:01;;;;;;;5.15;2.60;;;;;;;;;;5037700;28;20040;-74
2023/04/13 03:50:27;;;;;;;5.40;2.50;;;;;;;;;;5032917;28;20152;-74
2023/04/13 03:52:53;;;;;;;4.38;2.20;;;;;;;;;;5040254;28;20045;-76
2023/04/13 03:55:19;;;;;;;4.65;2.42;;;;;;;;;;5037776;28;20145;-75
2023/04/13 03:57:46;;;;;;;4.53;2.53;;;;;;;;;;5041581;28;20559;-74
2023/04/13 04:00:13;;;;;;;3.95;2.30;;;;;;;;;;5041885;28;20131;-75
2023/04/13 04:02:39;;;;;;;5.57;2.38;;;;;;;;;;5038081;28;20621;-75
2023/04/13 04:05:05;;;;;;;8.02;2.80;;;;;;;;;;5059511;28;20044;-75
2023/04/13 04:07:31;;;;;;;4.70;2.35;;;;;;;;;;5055947;28;20105;-75
2023/04/13 04:09:57;;;;;;;5.38;2.53;;;;;;;;;;5060023;28;20052;-74
2023/04/13 04:12:23;;;;;;;4.35;2.60;;;;;;;;;;5034320;28;20558;-75
2023/04/13 04:14:50;;;;;;;5.72;2.45;;;;;;;;;;5034172;28;20048;-75
2023/04/13 04:17:16;;;;;;;4.72;2.40;;;;;;;;;;5023919;28;20055;-76
2023/04/13 04:19:42;;;;;;;5.95;2.75;;;;;;;;;;5038034;28;20056;-76
2023/04/13 04:22:08;;;;;;;4.13;2.60;;;;;;;;;;5042024;28;20134;-75
2023/04/13 04:24:34;;;;;;;5.75;2.88;;;;;;;;;;5055328;28;20506;-75
2023/04/13 04:27:01;;;;;;;6.10;2.97;;;;;;;;;;5052125;28;20047;-76
2023/04/13 04:29:33;;;;;;;4.30;2.63;;;;;;;;;;5034573;28;20041;-76
2023/04/13 04:32:00;;;;;;;4.50;2.90;;;;;;;;;;5039091;28;20588;-75
2023/04/13 04:34:26;;;;;;;3.95;2.85;;;;;;;;;;5028272;28;20137;-75
2023/04/13 04:36:52;;;;;;;5.55;2.83;;;;;;;;;;5033474;28;20059;-75
2023/04/13 04:39:22;;;;;;;4.40;2.80;;;;;;;;;;5031695;28;20044;-74
2023/04/13 04:42:02;;;;;;;5.60;2.83;;;;;;;;;;5038632;28;20810;-75
2023/04/13 04:44:31;;;;;;;4.68;3.20;;;;;;;;;;5028253;28;20063;-75
2023/04/13 04:47:01;;;;;;;5.78;3.20;;;;;;;;;;5032295;28;20056;-74
2023/04/13 04:49:28;;;;;;;4.63;3.40;;;;;;;;;;5016033;28;20099;-74
2023/04/13 04:51:54;;;;;;;5.93;3.45;;;;;;;;;;5035309;28;20056;-74
2023/04/13 04:54:21;;;;;;;5.97;3.60;;;;;;;;;;5035396;28;20417;-74
2023/04/13 04:56:47;;;;;;;5.55;3.60;;;;;;;;;;5020963;28;20040;-76
2023/04/13 04:59:14;;;;;;;4.82;4.15;;;;;;;;;;5033802;28;20054;-75
2023/04/13 05:01:41;;;;;;;8.55;4.50;;;;;;;;;;5033375;28;20101;-76
2023/04/13 05:04:16;;;;;;;11.15;4.95;;;;;;;;;;5036050;28;20055;-76
2023/04/13 05:06:43;;;;;;;6.10;4.65;;;;;;;;;;5034823;28;20041;-74
2023/04/13 05:09:09;;;;;;;5.88;4.45;;;;;;;;;;5034827;28;20693;-74
2023/04/13 05:11:35;;;;;;;9.38;4.72;;;;;;;;;;5008768;28;20040;-74
2023/04/13 05:14:01;;;;;;;10.55;5.30;;;;;;;;;;5032048;28;20553;-75
2023/04/13 05:16:29;;;;;;;6.35;5.00;;;;;;;;;;5044790;28;20325;-76
2023/04/13 05:18:55;;;;;;;7.93;5.18;;;;;;;;;;5048500;28;20132;-74
2023/04/13 05:21:21;;;;;;;8.45;4.75;;;;;;;;;;5034793;28;20098;-74
2023/04/13 05:23:48;;;;;;;8.80;5.50;;;;;;;;;;5031597;28;20141;-75
2023/04/13 05:26:15;;;;;;;10.45;5.47;;;;;;;;;;5048208;28;20161;-75
2023/04/13 05:28:41;;;;;;;8.07;5.15;;;;;;;;;;5032204;28;20413;-74
2023/04/13 05:31:07;;;;;;;8.20;5.47;;;;;;;;;;5029142;28;20131;-75
2023/04/13 05:33:34;;;;;;;9.80;5.43;;;;;;;;;;5017162;28;20484;-74
2023/04/13 05:36:00;;;;;;;10.90;5.55;;;;;;;;;;5031283;28;20162;-75
2023/04/13 05:38:26;;;;;;;8.20;5.50;;;;;;;;;;5030999;28;20038;-74
2023/04/13 05:40:53;;;;;;;6.68;5.05;;;;;;;;;;5033492;28;20136;-75
2023/04/13 05:43:19;;;;;;;7.07;5.30;;;;;;;;;;5030732;28;20172;-75
2023/04/13 05:45:45;;;;;;;7.55;5.40;;;;;;;;;;5033738;28;20098;-75
2023/04/13 05:48:11;;;;;;;9.45;5.13;;;;;;;;;;5032852;28;20114;-75
2023/04/13 05:50:37;;;;;;;5.60;4.47;;;;;;;;;;5047304;28;20064;-75
2023/04/13 05:53:04;;;;;;;8.60;5.43;;;;;;;;;;5038833;28;20056;-75
2023/04/13 05:55:31;;;;;;;8.45;5.50;;;;;;;;;;5046075;28;20048;-75
2023/04/13 05:57:57;;;;;;;7.30;5.07;;;;;;;;;;5051038;28;20515;-75
2023/04/13 06:00:23;;;;;;;9.70;5.05;;;;;;;;;;5030914;28;20127;-76
2023/04/13 06:02:49;;;;;;;9.35;4.53;;;;;;;;;;5044521;28;20048;-75
2023/04/13 06:05:17;;;;;;;7.68;4.97;;;;;;;;;;5029649;28;20133;-74
2023/04/13 06:07:43;;;;;;;6.80;4.90;;;;;;;;;;5031072;28;20053;-75
2023/04/13 06:10:10;;;;;;;9.10;4.90;;;;;;;;;;5044889;28;20041;-75
2023/04/13 06:12:37;;;;;;;13.15;4.97;;;;;;;;;;5034301;28;20132;-75
2023/04/13 06:15:03;;;;;;;9.52;4.95;;;;;;;;;;5033343;28;20071;-74
2023/04/13 06:17:29;;;;;;;8.80;4.68;;;;;;;;;;5029942;28;20051;-75
2023/04/13 06:19:55;;;;;;;9.38;4.30;;;;;;;;;;5052189;28;20131;-75
2023/04/13 06:22:21;;;;;;;8.52;4.43;;;;;;;;;;5051095;28;20127;-75
2023/04/13 06:24:49;;;;;;;6.05;4.35;;;;;;;;;;5036337;28;20051;-75
2023/04/13 06:27:15;;;;;;;11.52;4.45;;;;;;;;;;5031528;28;20048;-75
2023/04/13 06:29:41;;;;;;;10.27;3.95;;;;;;;;;;5048478;28;20045;-75
2023/04/13 06:32:07;;;;;;;9.02;4.10;;;;;;;;;;5032715;28;20052;-76
2023/04/13 06:34:34;;;;;;;10.80;4.53;;;;;;;;;;5016020;28;20634;-76
2023/04/13 06:37:00;;;;;;;8.70;4.05;;;;;;;;;;5036072;28;20041;-76
2023/04/13 06:39:27;;;;;;;7.85;4.22;;;;;;;;;;5029942;28;20051;-74
2023/04/13 06:41:53;;;;;;;9.00;3.88;;;;;;;;;;5015603;28;20139;-76
2023/04/13 06:44:19;;;;;;;7.72;3.78;;;;;;;;;;5030964;28;20171;-75
2023/04/13 06:46:45;;;;;;;8.73;4.00;;;;;;;;;;5033820;28;20573;-75
2023/04/13 06:49:12;;;;;;;9.45;4.15;;;;;;;;;;5035767;28;20417;-76
2023/04/13 06:51:38;;;;;;;10.13;4.05;;;;;;;;;;5034830;28;20075;-76
2023/04/13 06:54:04;;;;;;;9.00;4.32;;;;;;;;;;5039623;28;20059;-77
2023/04/13 06:56:30;;;;;;;8.25;4.55;;;;;;;;;;5022575;28;20662;-74
2023/04/13 06:59:00;;;;;;;11.60;5.03;;;;;;;;;;5036916;28;20047;-76
2023/04/13 07:01:26;;;;;;;9.70;4.65;;;;;;;;;;5034626;28;20103;-77
2023/04/13 07:03:52;;;;;;;9.80;4.95;;;;;;;;;;5035476;28;20055;-78
2023/04/13 07:06:18;;;;;;;13.20;5.20;;;;;;;;;;5055689;28;20399;-77
2023/04/13 07:08:44;;;;;;;10.68;5.07;;;;;;;;;;5038205;28;20059;-75
2023/04/13 07:11:11;;;;;;;10.77;5.50;;;;;;;;;;5035350;28;20040;-74
2023/04/13 07:13:37;;;;;;;10.73;5.00;;;;;;;;;;5035766;28;20043;-75
2023/04/13 07:16:03;;;;;;;7.72;4.72;;;;;;;;;;5038981;28;20155;-76
2023/04/13 07:18:30;;;;;;;13.30;4.82;;;;;;;;;;5040220;28;20177;-76
2023/04/13 07:20:56;;;;;;;11.25;4.40;;;;;;;;;;5052909;28;20044;-76
2023/04/13 07:23:22;;;;;;;8.30;3.90;;;;;;;;;;5034969;28;20532;-78
2023/04/13 07:25:48;;;;;;;14.65;3.60;;;;;;;;;;5043684;28;20408;-78
2023/04/13 07:28:14;;;;;;;9.32;3.63;;;;;;;;;;5022524;28;20129;-78
2023/04/13 07:30:44;;;;;;;13.30;3.90;;;;;;;;;;5040973;28;20060;-77
2023/04/13 07:33:10;;;;;;;9.32;3.30;;;;;;;;;;5038260;28;20036;-77
2023/04/13 07:35:37;;;;;;;11.05;3.30;;;;;;;;;;5024379;28;20044;-77
2023/04/13 07:38:03;;;;;;;8.68;3.03;;;;;;;;;;5059879;28;20044;-78
2023/04/13 07:40:29;;;;;;;11.55;3.30;;;;;;;;;;5058204;28;20113;-78
2023/04/13 07:42:56;;;;;;;9.20;3.40;;;;;;;;;;5039029;28;20921;-78
2023/04/13 07:45:22;;;;;;;8.68;3.42;;;;;;;;;;5038293;28;20056;-77
2023/04/13 07:47:48;;;;;;;8.52;3.15;;;;;;;;;;5059354;28;20451;-77
2023/04/13 07:50:15;;;;;;;9.65;3.45;;;;;;;;;;5057397;28;20056;-76
2023/04/13 07:52:41;;;;;;;8.68;2.72;;;;;;;;;;5038390;28;20044;-77
2023/04/13 07:55:08;;;;;;;7.32;2.90;;;;;;;;;;5025001;28;20090;-78
2023/04/13 07:57:35;;;;;;;8.57;2.70;;;;;;;;;;5037547;28;20147;-78
2023/04/13 08:00:02;;;;;;;10.63;2.80;;;;;;;;;;5040954;28;20056;-78
2023/04/13 08:02:29;;;;;;;9.35;2.63;;;;;;;;;;5024174;28;20045;-78
2023/04/13 08:04:56;;;;;;;12.77;3.13;;;;;;;;;;5041652;28;20048;-78
2023/04/13 08:07:22;;;;;;;8.30;2.65;;;;;;;;;;5034101;28;20052;-77
2023/04/13 08:09:51;;;;;;;11.00;2.63;;;;;;;;;;5056920;28;20044;-78
2023/04/13 08:12:17;;;;;;;;;;;;;;;;;;5060275;28;20048;-78
2023/04/13 08:14:43;;;;;;;8.45;3.47;;;;;;;;;;5025194;28;19924;-77
2023/04/13 08:17:10;;;;;;;10.30;3.50;;;;;;;;;;5042480;28;20411;-77
2023/04/13 08:19:36;;;;;;;6.55;3.13;;;;;;;;;;5038970;28;20049;-76
2023/04/13 08:22:03;;;;;;;9.25;2.90;;;;;;;;;;5034694;28;20041;-76
2023/04/13 08:24:29;;;;;;;6.55;3.05;;;;;;;;;;5024377;28;20044;-77
2023/04/13 08:26:57;;;;;;;7.32;2.88;;;;;;;;;;5041731;28;20043;-77
2023/04/13 08:29:24;;;;;;;5.97;2.80;;;;;;;;;;5054421;28;20056;-77
2023/04/13 08:31:51;;;;;;;8.85;3.55;;;;;;;;;;5058074;28;20432;-77
2023/04/13 08:34:17;;;;;;;8.50;3.17;;;;;;;;;;5021725;28;20108;-78
2023/04/13 08:36:44;;;;;;;4.43;2.50;;;;;;;;;;5038091;28;20185;-77
2023/04/13 08:39:12;;;;;;;5.38;2.20;;;;;;;;;;5037724;28;20044;-77
2023/04/13 08:41:39;;;;;;;6.43;2.55;;;;;;;;;;5006027;28;20048;-78
2023/04/13 08:44:06;;;;;;;7.05;2.70;;;;;;;;;;5040211;28;20049;-77
2023/04/13 08:46:35;;;;;;;4.20;2.20;;;;;;;;;;5045504;28;20041;-77
2023/04/13 08:49:02;;;;;;;7.30;2.65;;;;;;;;;;5053960;28;20186;-77
2023/04/13 08:51:30;;;;;;;6.20;2.83;;;;;;;;;;5056704;28;20060;-76
2023/04/13 08:53:58;;;;;;;5.65;2.38;;;;;;;;;;5038686;28;20623;-77
2023/04/13 08:56:25;;;;;;;6.30;2.60;;;;;;;;;;5039112;28;20159;-77
2023/04/13 08:58:52;;;;;;;6.57;3.00;;;;;;;;;;5038534;28;20083;-76
2023/04/13 09:01:19;;;;;;;5.82;2.70;;;;;;;;;;5038987;28;20047;-79
2023/04/13 09:03:53;;;;;;;7.30;3.10;;;;;;;;;;5013375;28;20053;-80
2023/04/13 09:06:31;;;;;;;8.52;2.67;;;;;;;;;;5055309;28;20051;-78
2023/04/13 09:08:57;;;;;;;;;;;;;;;;;;5033497;28;20507;-79
2023/04/13 09:11:24;;;;;;;6.80;2.90;;;;;;;;;;5054431;28;20364;-78
2023/04/13 09:13:50;;;;;;;7.38;2.58;;;;;;;;;;5052503;28;20072;-79
2023/04/13 09:16:17;;;;;;;5.60;1.52;;;;;;;;;;5054316;28;20109;-78
2023/04/13 09:18:54;;;;;;;2.47;1.40;;;;;;;;;;5054077;28;20052;-79
2023/04/13 09:21:20;;;;;;;2.42;1.20;;;;;;;;;;5033112;28;20053;-76
2023/04/13 09:23:56;;;;;;;2.70;1.20;;;;;;;;;;5037362;28;20044;-77
2023/04/13 09:26:23;;;;;;;2.38;1.02;;;;;;;;;;5037442;28;20044;-78
2023/04/13 09:28:50;;;;;;;1.73;0.88;;;;;;;;;;5025480;28;20048;-77
2023/04/13 09:31:17;;;;;;;1.02;0.70;;;;;;;;;;5038298;28;20052;-76
2023/04/13 09:33:44;;;;;;;2.80;0.70;;;;;;;;;;5034667;28;20059;-78
2023/04/13 09:36:14;;;;;;;3.17;1.00;;;;;;;;;;5054305;28;20594;-78
2023/04/13 09:38:42;;;;;;;0.80;0.68;;;;;;;;;;5037872;28;20152;-79
2023/04/13 09:41:08;;;;;;;1.15;0.77;;;;;;;;;;5052852;28;20045;-78
2023/04/13 09:43:35;;;;;;;1.17;0.70;;;;;;;;;;5051923;28;20044;-79
2023/04/13 09:46:01;;;;;;;3.60;0.90;;;;;;;;;;5054550;28;20062;-79
2023/04/13 09:48:27;;;;;;;4.18;1.00;;;;;;;;;;5053900;28;20708;-78
2023/04/13 09:51:10;;;;;;;1.88;0.73;;;;;;;;;;5053093;28;20045;-82
2023/04/13 09:53:45;;;;;;;5.15;0.88;;;;;;;;;;5018521;28;20100;-83
2023/04/13 09:56:11;;;;;;;1.80;0.70;;;;;;;;;;5023932;28;20055;-84
2023/04/13 09:58:42;;;;;;;2.58;0.98;;;;;;;;;;5037588;28;20084;-82
2023/04/13 10:01:09;;;;;;;4.15;0.95;;;;;;;;;;5030502;28;20172;-82
2023/04/13 10:03:36;;;;;;;3.38;1.08;;;;;;;;;;5027164;28;20070;-83
2023/04/13 10:06:05;;;;;;;4.05;1.20;;;;;;;;;;5050379;28;20143;-82
2023/04/13 10:08:50;;;;;;;4.97;1.23;;;;;;;;;;5033471;28;20110;-82
2023/04/13 10:11:17;;;;;;;2.45;1.15;;;;;;;;;;5017187;28;20056;-82
2023/04/13 10:14:08;;;;;;;3.45;1.20;;;;;;;;;;5034447;28;20052;-84
2023/04/13 10:19:23;;;;;;;4.15;0.93;;;;;;;;;;5124257;22;21037;-85
2023/04/13 10:21:50;;;;;;;7.72;1.05;;;;;;;;;;4994145;28;20188;-84
2023/04/13 10:24:23;;;;;;;6.85;0.80;;;;;;;;;;5035700;28;20036;-84
2023/04/13 10:26:54;;;;;;;4.80;1.15;;;;;;;;;;5001694;28;20118;-83
2023/04/13 10:29:29;;;;;;;4.72;1.10;;;;;;;;;;5039716;28;20698;-84
2023/04/13 10:32:02;;;;;;;3.20;1.05;;;;;;;;;;5018151;28;20047;-83
2023/04/13 10:34:29;;;;;;;5.03;1.08;;;;;;;;;;5036404;28;20427;-82
2023/04/13 10:36:58;;;;;;;2.25;0.90;;;;;;;;;;5020393;28;20053;-82
2023/04/13 10:39:24;;;;;;;1.27;0.77;;;;;;;;;;5017646;28;20155;-82
2023/04/13 10:42:07;;;;;;;3.25;0.90;;;;;;;;;;5002724;28;20057;-83
2023/04/13 10:44:43;;;;;;;2.30;0.70;;;;;;;;;;5018094;28;20076;-83
2023/04/13 10:47:12;;;;;;;2.88;0.90;;;;;;;;;;5016490;28;20041;-84
2023/04/13 10:49:38;;;;;;;;;;;;;;;;;;5038194;28;20074;-83
2023/04/13 10:52:04;;;;;;;3.40;0.77;;;;;;;;;;4998903;28;20526;-84
2023/04/13 10:54:46;;;;;;;3.97;0.85;;;;;;;;;;5003332;28;20043;-84
2023/04/13 10:57:18;;;;;;;3.95;0.77;;;;;;;;;;5036639;28;20516;-84
2023/04/13 11:00:03;;;;;;;3.95;1.23;;;;;;;;;;5029665;28;20410;-83
2023/04/13 11:02:33;;;;;;;5.45;1.05;;;;;;;;;;5033715;28;20052;-83
2023/04/13 11:04:59;;;;;;;7.43;1.83;;;;;;;;;;5033208;28;20040;-85
2023/04/13 11:07:26;;;;;;;6.78;1.42;;;;;;;;;;5018800;28;20057;-84
2023/04/13 11:09:56;;;;;;;6.53;1.65;;;;;;;;;;5020411;28;20049;-84
2023/04/13 11:12:28;;;;;;;10.75;1.90;;;;;;;;;;5017551;28;20451;-85
2023/04/13 11:14:54;;;;;;;7.53;2.13;;;;;;;;;;5017502;28;20044;-79
2023/04/13 11:17:20;;;;;;;10.60;2.03;;;;;;;;;;5031890;28;20036;-78
2023/04/13 11:19:47;;;;;;;9.05;1.95;;;;;;;;;;5029036;28;20045;-77
2023/04/13 11:22:21;;;;;;;11.32;2.58;;;;;;;;;;5029922;28;20068;-77
2023/04/13 11:24:47;;;;;;;12.52;3.33;;;;;;;;;;5030585;28;20065;-77
2023/04/13 11:27:16;;;;;;;10.57;2.67;;;;;;;;;;5026269;28;20118;-76
2023/04/13 11:29:42;;;;;;;11.52;3.15;;;;;;;;;;5011369;28;20057;-77
2023/04/13 11:32:17;;;;;;;42.85;3.78;;;;;;;;;;5015496;28;20049;-76
2023/04/13 11:34:43;;;;;;;12.55;2.80;;;;;;;;;;5012691;28;20741;-79
2023/04/13 11:37:10;;;;;;;10.30;2.55;;;;;;;;;;5028457;28;20135;-80
2023/04/13 11:39:37;;;;;;;11.70;2.20;;;;;;;;;;5034095;28;20052;-77
2023/04/13 11:42:06;;;;;;;12.35;2.53;;;;;;;;;;5013236;28;20570;-78
2023/04/13 11:44:36;;;;;;;13.52;2.10;;;;;;;;;;5004978;28;21460;-78
2023/04/13 11:47:03;;;;;;;10.00;2.15;;;;;;;;;;5034328;28;20048;-78
2023/04/13 11:49:30;;;;;;;14.55;2.40;;;;;;;;;;5036386;28;20519;-79
2023/04/13 11:51:56;;;;;;;13.43;2.63;;;;;;;;;;5016430;28;20045;-81
2023/04/13 11:54:22;;;;;;;10.18;2.20;;;;;;;;;;5037373;28;20049;-78
2023/04/13 11:56:49;;;;;;;11.98;2.70;;;;;;;;;;5037658;28;20033;-77
2023/04/13 11:59:15;;;;;;;11.13;2.20;;;;;;;;;;5034247;28;20041;-78
2023/04/13 12:01:48;;;;;;;9.77;1.83;;;;;;;;;;5037308;28;20060;-78
2023/04/13 12:04:14;;;;;;;8.98;1.98;;;;;;;;;;5015760;28;20143;-78
2023/04/13 12:06:41;;;;;;;13.15;2.10;;;;;;;;;;5019578;28;20045;-78
2023/04/13 12:09:08;;;;;;;12.07;2.65;;;;;;;;;;5015824;28;20507;-77
2023/04/13 12:11:38;;;;;;;16.05;2.42;;;;;;;;;;5001031;28;20076;-78
2023/04/13 12:14:04;;;;;;;9.98;2.30;;;;;;;;;;4998130;28;20102;-78
2023/04/13 12:16:32;;;;;;;19.17;2.30;;;;;;;;;;5035340;28;20071;-78
2023/04/13 12:19:06;;;;;;;10.32;2.55;;;;;;;;;;5034858;28;20071;-78
2023/04/13 12:21:32;;;;;;;14.80;2.58;;;;;;;;;;5034574;28;20052;-78
2023/04/13 12:23:59;;;;;;;10.05;1.95;;;;;;;;;;5013294;28;20064;-78
2023/04/13 12:26:32;;;;;;;10.48;2.00;;;;;;;;;;5013700;28;20053;-79
2023/04/13 12:28:59;;;;;;;10.88;1.90;;;;;;;;;;5000672;28;20101;-79
2023/04/13 12:31:31;;;;;;;16.02;2.53;;;;;;;;;;5012089;28;21106;-77
2023/04/13 12:33:57;;;;;;;10.98;2.20;;;;;;;;;;5014431;28;20099;-78
2023/04/13 12:36:27;;;;;;;10.25;1.88;;;;;;;;;;5030977;28;20049;-79
2023/04/13 12:38:53;;;;;;;9.48;2.20;;;;;;;;;;5032630;28;20037;-79
2023/04/13 12:41:19;;;;;;;11.55;2.42;;;;;;;;;;5031013;28;20075;-78
2023/04/13 12:43:45;;;;;;;11.27;2.38;;;;;;;;;;5033784;28;20421;-78
2023/04/13 12:46:11;;;;;;;8.30;2.28;;;;;;;;;;5032490;28;20052;-81
2023/04/13 12:48:37;;;;;;;11.40;2.33;;;;;;;;;;5015917;28;20059;-79
2023/04/13 12:51:03;;;;;;;11.85;3.40;;;;;;;;;;5034707;28;20049;-80
2023/04/13 12:53:32;;;;;;;10.05;2.65;;;;;;;;;;5034031;28;20123;-79
2023/04/13 12:55:59;;;;;;;10.98;2.88;;;;;;;;;;5016025;28;20496;-80
2023/04/13 12:58:25;;;;;;;11.40;3.10;;;;;;;;;;5029468;28;20079;-80
2023/04/13 13:00:51;;;;;;;11.93;2.28;;;;;;;;;;5036200;28;20416;-81
2023/04/13 13:03:17;;;;;;;15.57;2.20;;;;;;;;;;5026845;28;20055;-79
2023/04/13 13:05:43;;;;;;;12.88;2.42;;;;;;;;;;5002266;28;20132;-79
2023/04/13 13:08:09;;;;;;;14.68;2.50;;;;;;;;;;5032364;28;20048;-79
2023/04/13 13:10:38;;;;;;;13.32;2.30;;;;;;;;;;5028346;28;20041;-78
2023/04/13 13:13:05;;;;;;;20.23;6.30;;;;;;;;;;5016462;28;20053;-82
2023/04/13 13:15:32;;;;;;;13.20;2.33;;;;;;;;;;5031659;28;20140;-78
2023/04/13 13:18:02;;;;;;;18.17;2.55;;;;;;;;;;5028101;28;20501;-82
2023/04/13 13:20:29;;;;;;;9.90;2.03;;;;;;;;;;5013484;28;20152;-80
2023/04/13 13:22:56;;;;;;;7.90;2.22;;;;;;;;;;5016292;28;20059;-80
2023/04/13 13:25:22;;;;;;;14.27;2.95;;;;;;;;;;5042334;28;20563;-84
2023/04/13 13:27:48;;;;;;;12.00;2.33;;;;;;;;;;5019192;28;20079;-79
2023/04/13 13:30:14;;;;;;;15.63;3.05;;;;;;;;;;5017727;28;20045;-81
2023/04/13 13:32:40;;;;;;;9.77;2.00;;;;;;;;;;5018498;28;20131;-80
2023/04/13 13:35:09;;;;;;;12.15;2.83;;;;;;;;;;5032616;28;20049;-81
2023/04/13 13:37:35;;;;;;;12.35;2.33;;;;;;;;;;5005489;28;20865;-81
2023/04/13 13:40:11;;;;;;;13.68;2.10;;;;;;;;;;5011583;28;20037;-81
2023/04/13 13:42:37;;;;;;;9.38;2.05;;;;;;;;;;4992344;28;20052;-82
2023/04/13 13:45:03;;;;;;;13.27;2.53;;;;;;;;;;5012151;28;20056;-82
2023/04/13 13:47:29;;;;;;;10.60;2.03;;;;;;;;;;5028506;28;20543;-81
2023/04/13 13:49:55;;;;;;;16.35;2.65;;;;;;;;;;5009838;28;20056;-81
2023/04/13 13:52:21;;;;;;;11.30;2.45;;;;;;;;;;5009536;28;20067;-81
2023/04/13 13:54:48;;;;;;;17.30;2.25;;;;;;;;;;5027581;28;20045;-82
2023/04/13 13:57:15;;;;;;;13.75;2.00;;;;;;;;;;5010319;28;20164;-81
2023/04/13 13:59:41;;;;;;;12.77;2.50;;;;;;;;;;5013147;28;20148;-81
2023/04/13 14:02:07;;;;;;;9.10;1.85;;;;;;;;;;5009155;28;20048;-82
2023/04/13 14:04:33;;;;;;;8.60;1.90;;;;;;;;;;5024434;28;20416;-82
2023/04/13 14:06:59;;;;;;;10.15;2.22;;;;;;;;;;5009878;28;20045;-81
2023/04/13 14:09:26;;;;;;;9.07;1.83;;;;;;;;;;5006985;28;20072;-82
2023/04/13 14:11:55;;;;;;;9.00;2.00;;;;;;;;;;5017069;28;20045;-81
2023/04/13 14:14:21;;;;;;;;;;;;;;;;;;5035976;28;20044;-80
2023/04/13 14:16:47;;;;;;;12.48;2.30;;;;;;;;;;5037058;28;19936;-80
2023/04/13 14:19:13;;;;;;;9.10;1.80;;;;;;;;;;5014096;28;20054;-80
2023/04/13 14:21:41;;;;;;;13.85;2.50;;;;;;;;;;5016780;28;20049;-80
2023/04/13 14:24:07;;;;;;;9.88;1.77;;;;;;;;;;5017799;28;20574;-80
2023/04/13 14:26:36;;;;;;;11.35;1.90;;;;;;;;;;5015700;28;20049;-80
2023/04/13 14:29:02;;;;;;;11.82;2.10;;;;;;;;;;5019406;28;20045;-80
2023/04/13 14:31:28;;;;;;;12.65;1.92;;;;;;;;;;5015458;28;20554;-80
2023/04/13 14:33:55;;;;;;;11.18;1.92;;;;;;;;;;5014619;28;20037;-80
2023/04/13 14:36:21;;;;;;;11.43;2.03;;;;;;;;;;5017489;28;20552;-80
2023/04/13 14:38:47;;;;;;;11.30;2.15;;;;;;;;;;5012396;28;20135;-80
2023/04/13 14:41:13;;;;;;;7.05;1.60;;;;;;;;;;5014685;28;20114;-80
2023/04/13 14:43:39;;;;;;;26.42;8.07;;;;;;;;;;5017303;28;20045;-80
2023/04/13 14:46:05;;;;;;;17.13;3.13;;;;;;;;;;5016713;28;20068;-79